Terminal Aerodrome Forecast
Issued by NWS Newport/Morehead City, NC

Home | Current Version | Previous Version | Text Only | Print | Product List | Glossary Off
Versions: 1 2 3 4 5 6 7 8 9 10 11 12 13 14 15 16 17 18 19

000
FTUS42 KMHX 280500
TAFEWN
TAF
KEWN 280533Z 2806/2906 22007KT P6SM SCT040 BKN150
     FM281400 26011G17KT P6SM SCT040
     FM282000 26009KT P6SM VCTS SCT025 BKN040CB
     FM290300 33005KT P6SM SCT040=

USA.gov is the U.S. government's official web portal to all federal, state and local government web resources and services.